sensor_id;sensor_type;location;lat;lon;timestamp;pressure;altitude;pressure_sealevel;temperature;humidity
39357;BME280;25077;50.302;18.996;2022-12-18T00:01:40;99575.91;;;-5.29;74.78
39357;BME280;25077;50.302;18.996;2022-12-18T00:04:42;99586.88;;;-5.25;74.56
39357;BME280;25077;50.302;18.996;2022-12-18T00:07:45;99591.69;;;-5.22;74.18
39357;BME280;25077;50.302;18.996;2022-12-18T00:10:48;99588.94;;;-5.27;73.79
39357;BME280;25077;50.302;18.996;2022-12-18T00:13:50;99592.00;;;-5.30;73.53
39357;BME280;25077;50.302;18.996;2022-12-18T00:16:52;99590.25;;;-5.36;73.63
39357;BME280;25077;50.302;18.996;2022-12-18T00:19:55;99595.97;;;-5.39;74.13
39357;BME280;25077;50.302;18.996;2022-12-18T00:22:57;99602.13;;;-5.46;73.90
39357;BME280;25077;50.302;18.996;2022-12-18T00:26:00;99599.06;;;-5.43;73.94
39357;BME280;25077;50.302;18.996;2022-12-18T00:29:09;99605.72;;;-5.40;73.93
39357;BME280;25077;50.302;18.996;2022-12-18T00:32:11;99597.88;;;-5.47;73.57
39357;BME280;25077;50.302;18.996;2022-12-18T00:35:13;99600.53;;;-5.47;73.58
39357;BME280;25077;50.302;18.996;2022-12-18T00:38:16;99605.81;;;-5.47;73.42
39357;BME280;25077;50.302;18.996;2022-12-18T00:41:20;99611.47;;;-5.43;73.80
39357;BME280;25077;50.302;18.996;2022-12-18T00:44:41;99617.88;;;-5.39;73.72
39357;BME280;25077;50.302;18.996;2022-12-18T00:47:43;99622.81;;;-5.43;73.68
39357;BME280;25077;50.302;18.996;2022-12-18T00:50:47;99633.97;;;-5.40;73.93
39357;BME280;25077;50.302;18.996;2022-12-18T00:53:49;99625.00;;;-5.39;73.71
39357;BME280;25077;50.302;18.996;2022-12-18T00:56:53;99623.41;;;-5.40;73.56
39357;BME280;25077;50.302;18.996;2022-12-18T00:59:55;99634.56;;;-5.38;73.61
39357;BME280;25077;50.302;18.996;2022-12-18T01:02:58;99639.41;;;-5.35;73.67
39357;BME280;25077;50.302;18.996;2022-12-18T01:06:05;99654.81;;;-5.32;73.22
39357;BME280;25077;50.302;18.996;2022-12-18T01:09:07;99653.16;;;-5.33;73.44
39357;BME280;25077;50.302;18.996;2022-12-18T01:12:12;99656.41;;;-5.31;73.49
39357;BME280;25077;50.302;18.996;2022-12-18T01:15:14;99664.13;;;-5.30;73.43
39357;BME280;25077;50.302;18.996;2022-12-18T01:18:17;99660.66;;;-5.30;73.82
39357;BME280;25077;50.302;18.996;2022-12-18T01:21:20;99662.50;;;-5.31;73.23
39357;BME280;25077;50.302;18.996;2022-12-18T01:24:22;99655.63;;;-5.32;73.44
39357;BME280;25077;50.302;18.996;2022-12-18T01:27:25;99657.06;;;-5.36;73.61
39357;BME280;25077;50.302;18.996;2022-12-18T01:30:27;99653.63;;;-5.36;73.46
39357;BME280;25077;50.302;18.996;2022-12-18T01:33:30;99653.91;;;-5.45;73.53
39357;BME280;25077;50.302;18.996;2022-12-18T01:36:33;99656.53;;;-5.45;73.79
39357;BME280;25077;50.302;18.996;2022-12-18T01:39:36;99652.44;;;-5.40;73.74
39357;BME280;25077;50.302;18.996;2022-12-18T01:42:39;99665.66;;;-5.40;73.81
39357;BME280;25077;50.302;18.996;2022-12-18T01:45:42;99665.06;;;-5.43;74.02
39357;BME280;25077;50.302;18.996;2022-12-18T01:48:45;99664.94;;;-5.48;74.04
39357;BME280;25077;50.302;18.996;2022-12-18T01:51:49;99671.81;;;-5.47;74.10
39357;BME280;25077;50.302;18.996;2022-12-18T01:54:51;99669.56;;;-5.43;73.86
39357;BME280;25077;50.302;18.996;2022-12-18T01:57:57;99677.63;;;-5.38;74.03
39357;BME280;25077;50.302;18.996;2022-12-18T02:01:00;99681.94;;;-5.44;74.29
39357;BME280;25077;50.302;18.996;2022-12-18T02:04:21;99687.06;;;-5.49;74.38
39357;BME280;25077;50.302;18.996;2022-12-18T02:07:32;99690.28;;;-5.47;74.40
39357;BME280;25077;50.302;18.996;2022-12-18T02:10:43;99698.06;;;-5.52;74.30
39357;BME280;25077;50.302;18.996;2022-12-18T02:13:53;99711.03;;;-5.50;74.37
39357;BME280;25077;50.302;18.996;2022-12-18T02:17:00;99720.06;;;-5.58;74.58
39357;BME280;25077;50.302;18.996;2022-12-18T02:20:12;99723.28;;;-5.56;74.27
39357;BME280;25077;50.302;18.996;2022-12-18T02:23:24;99713.97;;;-5.58;74.41
39357;BME280;25077;50.302;18.996;2022-12-18T02:26:36;99721.47;;;-5.55;74.75
39357;BME280;25077;50.302;18.996;2022-12-18T02:29:45;99725.34;;;-5.58;74.71
39357;BME280;25077;50.302;18.996;2022-12-18T02:32:50;99725.78;;;-5.61;74.74
39357;BME280;25077;50.302;18.996;2022-12-18T02:35:55;99722.53;;;-5.63;74.73
39357;BME280;25077;50.302;18.996;2022-12-18T02:39:01;99719.69;;;-5.61;74.61
39357;BME280;25077;50.302;18.996;2022-12-18T02:42:06;99727.41;;;-5.60;74.86
39357;BME280;25077;50.302;18.996;2022-12-18T02:45:10;99741.41;;;-5.59;74.76
39357;BME280;25077;50.302;18.996;2022-12-18T02:48:12;99734.88;;;-5.57;74.75
39357;BME280;25077;50.302;18.996;2022-12-18T02:51:24;99740.75;;;-5.55;74.64
39357;BME280;25077;50.302;18.996;2022-12-18T02:54:52;99749.69;;;-5.56;74.59
39357;BME280;25077;50.302;18.996;2022-12-18T02:58:03;99746.03;;;-5.55;75.01
39357;BME280;25077;50.302;18.996;2022-12-18T03:01:15;99752.13;;;-5.54;74.79
39357;BME280;25077;50.302;18.996;2022-12-18T03:04:22;99755.41;;;-5.59;74.74
39357;BME280;25077;50.302;18.996;2022-12-18T03:07:34;99769.41;;;-5.58;74.49
39357;BME280;25077;50.302;18.996;2022-12-18T03:10:45;99777.31;;;-5.58;74.93
39357;BME280;25077;50.302;18.996;2022-12-18T03:13:54;99773.03;;;-5.53;75.14
39357;BME280;25077;50.302;18.996;2022-12-18T03:17:02;99782.13;;;-5.49;74.99
39357;BME280;25077;50.302;18.996;2022-12-18T03:20:07;99777.88;;;-5.50;74.50
39357;BME280;25077;50.302;18.996;2022-12-18T03:23:14;99780.06;;;-5.47;74.95
39357;BME280;25077;50.302;18.996;2022-12-18T03:26:24;99777.59;;;-5.41;74.92
39357;BME280;25077;50.302;18.996;2022-12-18T03:29:35;99773.34;;;-5.43;74.75
39357;BME280;25077;50.302;18.996;2022-12-18T03:32:42;99774.78;;;-5.47;74.59
39357;BME280;25077;50.302;18.996;2022-12-18T03:35:47;99774.16;;;-5.42;74.89
39357;BME280;25077;50.302;18.996;2022-12-18T03:38:52;99773.56;;;-5.44;74.45
39357;BME280;25077;50.302;18.996;2022-12-18T03:42:01;99778.16;;;-5.39;75.04
39357;BME280;25077;50.302;18.996;2022-12-18T03:45:23;99787.72;;;-5.38;74.32
39357;BME280;25077;50.302;18.996;2022-12-18T03:48:29;99790.63;;;-5.47;73.99
39357;BME280;25077;50.302;18.996;2022-12-18T03:51:40;99787.84;;;-5.52;74.46
39357;BME280;25077;50.302;18.996;2022-12-18T03:54:45;99795.53;;;-5.50;74.79
39357;BME280;25077;50.302;18.996;2022-12-18T03:57:52;99800.44;;;-5.54;74.14
39357;BME280;25077;50.302;18.996;2022-12-18T04:00:59;99803.34;;;-5.62;74.63
39357;BME280;25077;50.302;18.996;2022-12-18T04:04:04;99811.88;;;-5.60;74.68
39357;BME280;25077;50.302;18.996;2022-12-18T04:07:13;99815.53;;;-5.61;74.77
39357;BME280;25077;50.302;18.996;2022-12-18T04:10:18;99815.53;;;-5.61;75.08
39357;BME280;25077;50.302;18.996;2022-12-18T04:13:22;99817.97;;;-5.59;75.01
39357;BME280;25077;50.302;18.996;2022-12-18T04:16:26;99818.81;;;-5.65;74.82
39357;BME280;25077;50.302;18.996;2022-12-18T04:19:34;99818.44;;;-5.69;74.98
39357;BME280;25077;50.302;18.996;2022-12-18T04:22:37;99821.69;;;-5.74;74.87
39357;BME280;25077;50.302;18.996;2022-12-18T04:25:39;99821.94;;;-5.75;74.90
39357;BME280;25077;50.302;18.996;2022-12-18T04:28:45;99834.72;;;-5.79;74.98
39357;BME280;25077;50.302;18.996;2022-12-18T04:31:51;99832.75;;;-5.83;75.28
39357;BME280;25077;50.302;18.996;2022-12-18T04:34:54;99843.72;;;-5.86;75.21
39357;BME280;25077;50.302;18.996;2022-12-18T04:37:57;99844.91;;;-5.82;75.19
39357;BME280;25077;50.302;18.996;2022-12-18T04:40:59;99841.66;;;-5.78;75.41
39357;BME280;25077;50.302;18.996;2022-12-18T04:44:02;99845.28;;;-5.79;75.17
39357;BME280;25077;50.302;18.996;2022-12-18T04:47:05;99844.97;;;-5.89;75.18
39357;BME280;25077;50.302;18.996;2022-12-18T04:50:08;99852.66;;;-5.87;75.78
39357;BME280;25077;50.302;18.996;2022-12-18T04:53:10;99855.09;;;-5.86;75.34
39357;BME280;25077;50.302;18.996;2022-12-18T04:56:14;99865.22;;;-5.83;75.56
39357;BME280;25077;50.302;18.996;2022-12-18T04:59:16;99874.53;;;-5.80;75.40
39357;BME280;25077;50.302;18.996;2022-12-18T05:02:19;99873.91;;;-5.76;75.33
39357;BME280;25077;50.302;18.996;2022-12-18T05:05:22;99869.88;;;-5.78;75.40
39357;BME280;25077;50.302;18.996;2022-12-18T05:08:24;99876.53;;;-5.76;75.32
39357;BME280;25077;50.302;18.996;2022-12-18T05:11:26;99878.56;;;-5.71;75.54
39357;BME280;25077;50.302;18.996;2022-12-18T05:14:28;99886.66;;;-5.66;75.38
39357;BME280;25077;50.302;18.996;2022-12-18T05:17:33;99894.34;;;-5.64;75.44
39357;BME280;25077;50.302;18.996;2022-12-18T05:20:35;99898.41;;;-5.68;75.62
39357;BME280;25077;50.302;18.996;2022-12-18T05:23:37;99892.34;;;-5.69;75.53
39357;BME280;25077;50.302;18.996;2022-12-18T05:26:39;99892.34;;;-5.69;75.66
39357;BME280;25077;50.302;18.996;2022-12-18T05:29:41;99890.31;;;-5.67;75.97
39357;BME280;25077;50.302;18.996;2022-12-18T05:32:44;99892.72;;;-5.65;75.52
39357;BME280;25077;50.302;18.996;2022-12-18T05:35:50;99900.03;;;-5.61;75.61
39357;BME280;25077;50.302;18.996;2022-12-18T05:38:52;99905.72;;;-5.64;75.43
39357;BME280;25077;50.302;18.996;2022-12-18T05:41:54;99907.75;;;-5.66;75.41
39357;BME280;25077;50.302;18.996;2022-12-18T05:44:56;99909.38;;;-5.65;75.38
39357;BME280;25077;50.302;18.996;2022-12-18T05:48:00;99914.22;;;-5.62;75.25
39357;BME280;25077;50.302;18.996;2022-12-18T05:51:06;99916.28;;;-5.64;74.97
39357;BME280;25077;50.302;18.996;2022-12-18T05:54:09;99916.50;;;-5.65;75.21
39357;BME280;25077;50.302;18.996;2022-12-18T05:57:11;99919.94;;;-5.65;75.20
39357;BME280;25077;50.302;18.996;2022-12-18T06:00:15;99913.44;;;-5.69;75.36
39357;BME280;25077;50.302;18.996;2022-12-18T06:03:18;99916.72;;;-5.74;75.00
39357;BME280;25077;50.302;18.996;2022-12-18T06:06:23;99922.84;;;-5.80;75.00
39357;BME280;25077;50.302;18.996;2022-12-18T06:09:25;99922.66;;;-5.85;75.16
39357;BME280;25077;50.302;18.996;2022-12-18T06:12:27;99926.78;;;-5.89;75.09
39357;BME280;25077;50.302;18.996;2022-12-18T06:15:29;99933.88;;;-5.89;75.34
39357;BME280;25077;50.302;18.996;2022-12-18T06:18:33;99933.88;;;-5.89;75.39
39357;BME280;25077;50.302;18.996;2022-12-18T06:21:36;99931.03;;;-5.88;75.48
39357;BME280;25077;50.302;18.996;2022-12-18T06:24:38;99933.22;;;-5.85;75.62
39357;BME280;25077;50.302;18.996;2022-12-18T06:27:40;99938.31;;;-5.83;75.79
39357;BME280;25077;50.302;18.996;2022-12-18T06:30:43;99949.69;;;-5.83;75.39
39357;BME280;25077;50.302;18.996;2022-12-18T06:33:46;99950.47;;;-5.82;75.51
39357;BME280;25077;50.302;18.996;2022-12-18T06:36:48;99954.56;;;-5.86;75.39
39357;BME280;25077;50.302;18.996;2022-12-18T06:39:50;99954.16;;;-5.90;75.69
39357;BME280;25077;50.302;18.996;2022-12-18T06:42:53;99965.53;;;-5.89;75.53
39357;BME280;25077;50.302;18.996;2022-12-18T06:45:58;99963.50;;;-5.87;75.70
39357;BME280;25077;50.302;18.996;2022-12-18T06:49:02;99964.09;;;-5.85;75.78
39357;BME280;25077;50.302;18.996;2022-12-18T06:52:04;99969.97;;;-5.83;75.66
39357;BME280;25077;50.302;18.996;2022-12-18T06:55:07;99978.75;;;-5.89;75.78
39357;BME280;25077;50.302;18.996;2022-12-18T06:58:10;99975.47;;;-5.91;75.90
39357;BME280;25077;50.302;18.996;2022-12-18T07:01:13;99983.38;;;-5.85;76.12
39357;BME280;25077;50.302;18.996;2022-12-18T07:04:17;99982.53;;;-5.79;76.02
39357;BME280;25077;50.302;18.996;2022-12-18T07:07:19;99990.84;;;-5.75;75.97
39357;BME280;25077;50.302;18.996;2022-12-18T07:10:21;99996.72;;;-5.66;76.28
39357;BME280;25077;50.302;18.996;2022-12-18T07:13:24;99994.63;;;-5.58;76.11
39357;BME280;25077;50.302;18.996;2022-12-18T07:16:27;100004.78;;;-5.55;75.95
39357;BME280;25077;50.302;18.996;2022-12-18T07:19:31;100010.66;;;-5.53;75.80
39357;BME280;25077;50.302;18.996;2022-12-18T07:22:33;100013.28;;;-5.53;75.61
39357;BME280;25077;50.302;18.996;2022-12-18T07:25:35;100018.78;;;-5.54;75.50
39357;BME280;25077;50.302;18.996;2022-12-18T07:28:39;100022.03;;;-5.59;75.35
39357;BME280;25077;50.302;18.996;2022-12-18T07:31:42;100025.09;;;-5.55;76.24
39357;BME280;25077;50.302;18.996;2022-12-18T07:34:46;100025.88;;;-5.48;76.13
39357;BME280;25077;50.302;18.996;2022-12-18T07:37:48;100028.88;;;-5.45;75.33
39357;BME280;25077;50.302;18.996;2022-12-18T07:40:50;100029.50;;;-5.43;75.40
39357;BME280;25077;50.302;18.996;2022-12-18T07:43:52;100034.78;;;-5.43;75.47
39357;BME280;25077;50.302;18.996;2022-12-18T07:46:55;100032.13;;;-5.43;74.96
39357;BME280;25077;50.302;18.996;2022-12-18T07:49:58;100036.56;;;-5.36;75.31
39357;BME280;25077;50.302;18.996;2022-12-18T07:53:00;100031.88;;;-5.34;74.80
39357;BME280;25077;50.302;18.996;2022-12-18T07:56:06;100033.94;;;-5.36;74.86
39357;BME280;25077;50.302;18.996;2022-12-18T07:59:08;100020.50;;;-5.35;75.03
39357;BME280;25077;50.302;18.996;2022-12-18T08:02:11;100041.13;;;-5.19;74.89
39357;BME280;25077;50.302;18.996;2022-12-18T08:05:14;100040.06;;;-5.11;75.02
39357;BME280;25077;50.302;18.996;2022-12-18T08:08:16;100030.69;;;-5.07;74.47
39357;BME280;25077;50.302;18.996;2022-12-18T08:11:19;100040.19;;;-4.99;74.83
39357;BME280;25077;50.302;18.996;2022-12-18T08:14:21;100038.41;;;-4.99;74.44
39357;BME280;25077;50.302;18.996;2022-12-18T08:17:23;100045.72;;;-5.01;74.14
39357;BME280;25077;50.302;18.996;2022-12-18T08:20:27;100051.00;;;-5.01;74.12
39357;BME280;25077;50.302;18.996;2022-12-18T08:23:28;100045.47;;;-4.99;74.25
39357;BME280;25077;50.302;18.996;2022-12-18T08:26:31;100053.41;;;-4.99;73.75
39357;BME280;25077;50.302;18.996;2022-12-18T08:29:33;100051.44;;;-5.04;73.04
39357;BME280;25077;50.302;18.996;2022-12-18T08:32:35;100049.19;;;-5.07;73.24
39357;BME280;25077;50.302;18.996;2022-12-18T08:35:38;100057.13;;;-5.07;73.44
39357;BME280;25077;50.302;18.996;2022-12-18T08:38:41;100062.00;;;-5.04;73.06
39357;BME280;25077;50.302;18.996;2022-12-18T08:41:43;100066.25;;;-5.03;72.62
39357;BME280;25077;50.302;18.996;2022-12-18T08:45:06;100075.22;;;-5.04;72.63
39357;BME280;25077;50.302;18.996;2022-12-18T08:48:08;100076.22;;;-5.05;72.37
39357;BME280;25077;50.302;18.996;2022-12-18T08:51:11;100076.03;;;-5.03;72.63
39357;BME280;25077;50.302;18.996;2022-12-18T08:54:14;100084.13;;;-4.98;73.22
39357;BME280;25077;50.302;18.996;2022-12-18T08:57:16;100082.47;;;-4.93;72.84
39357;BME280;25077;50.302;18.996;2022-12-18T09:00:19;100090.53;;;-4.81;73.21
39357;BME280;25077;50.302;18.996;2022-12-18T09:03:21;100089.41;;;-4.67;72.87
39357;BME280;25077;50.302;18.996;2022-12-18T09:06:25;100096.06;;;-4.57;72.31
39357;BME280;25077;50.302;18.996;2022-12-18T09:09:27;100101.88;;;-4.49;72.32
39357;BME280;25077;50.302;18.996;2022-12-18T09:12:29;100097.38;;;-4.42;72.35
39357;BME280;25077;50.302;18.996;2022-12-18T09:15:32;100108.41;;;-4.26;71.88
39357;BME280;25077;50.302;18.996;2022-12-18T09:18:34;100109.50;;;-4.09;72.12
39357;BME280;25077;50.302;18.996;2022-12-18T09:21:38;100114.69;;;-3.96;70.86
39357;BME280;25077;50.302;18.996;2022-12-18T09:24:40;100115.34;;;-3.82;71.62
39357;BME280;25077;50.302;18.996;2022-12-18T09:27:42;100107.22;;;-3.62;71.53
39357;BME280;25077;50.302;18.996;2022-12-18T09:30:46;100103.38;;;-3.48;71.49
39357;BME280;25077;50.302;18.996;2022-12-18T09:33:49;100098.78;;;-3.41;70.84
39357;BME280;25077;50.302;18.996;2022-12-18T09:36:52;100110.16;;;-3.34;70.59
39357;BME280;25077;50.302;18.996;2022-12-18T09:39:55;100105.13;;;-3.42;69.12
39357;BME280;25077;50.302;18.996;2022-12-18T09:42:59;100108.38;;;-3.40;69.95
39357;BME280;25077;50.302;18.996;2022-12-18T09:46:05;100117.63;;;-3.31;70.47
39357;BME280;25077;50.302;18.996;2022-12-18T09:49:12;100115.13;;;-3.25;69.25
39357;BME280;25077;50.302;18.996;2022-12-18T09:52:20;100104.69;;;-3.20;69.61
39357;BME280;25077;50.302;18.996;2022-12-18T09:55:27;100118.75;;;-3.20;69.26
39357;BME280;25077;50.302;18.996;2022-12-18T09:58:34;100113.53;;;-3.26;68.34
39357;BME280;25077;50.302;18.996;2022-12-18T10:01:37;100117.28;;;-3.34;68.45
39357;BME280;25077;50.302;18.996;2022-12-18T10:04:39;100110.81;;;-3.38;68.68
39357;BME280;25077;50.302;18.996;2022-12-18T10:07:54;100113.09;;;-3.42;68.58
39357;BME280;25077;50.302;18.996;2022-12-18T10:10:59;100102.34;;;-3.47;68.51
39357;BME280;25077;50.302;18.996;2022-12-18T10:14:09;100108.66;;;-3.48;68.89
39357;BME280;25077;50.302;18.996;2022-12-18T10:17:19;100105.94;;;-3.41;69.18
39357;BME280;25077;50.302;18.996;2022-12-18T10:20:31;100108.38;;;-3.40;68.79
39357;BME280;25077;50.302;18.996;2022-12-18T10:23:45;100103.00;;;-3.33;68.92
39357;BME280;25077;50.302;18.996;2022-12-18T10:26:51;100098.19;;;-3.24;68.83
39357;BME280;25077;50.302;18.996;2022-12-18T10:29:54;100093.56;;;-3.11;69.11
39357;BME280;25077;50.302;18.996;2022-12-18T10:33:00;100080.19;;;-3.04;68.34
39357;BME280;25077;50.302;18.996;2022-12-18T10:36:04;100080.63;;;-2.89;68.85
39357;BME280;25077;50.302;18.996;2022-12-18T10:39:19;100078.16;;;-2.60;69.25
39357;BME280;25077;50.302;18.996;2022-12-18T10:42:22;100076.09;;;-2.35;68.12
39357;BME280;25077;50.302;18.996;2022-12-18T10:45:24;100070.78;;;-2.23;67.80
39357;BME280;25077;50.302;18.996;2022-12-18T10:48:27;100077.38;;;-2.02;68.08
39357;BME280;25077;50.302;18.996;2022-12-18T10:51:31;100070.84;;;-1.59;68.54
39357;BME280;25077;50.302;18.996;2022-12-18T10:54:36;100084.59;;;-1.10;68.54
39357;BME280;25077;50.302;18.996;2022-12-18T10:57:39;100070.88;;;-0.74;67.63
39357;BME280;25077;50.302;18.996;2022-12-18T11:00:42;100070.97;;;-0.35;67.35
39357;BME280;25077;50.302;18.996;2022-12-18T11:03:46;100052.66;;;-0.15;65.75
39357;BME280;25077;50.302;18.996;2022-12-18T11:07:01;100057.09;;;-0.20;62.27
39357;BME280;25077;50.302;18.996;2022-12-18T11:10:14;100051.28;;;-0.34;63.96
39357;BME280;25077;50.302;18.996;2022-12-18T11:13:18;100049.69;;;-0.52;64.10
39357;BME280;25077;50.302;18.996;2022-12-18T11:16:23;100052.50;;;-0.58;64.40
39357;BME280;25077;50.302;18.996;2022-12-18T11:19:33;100047.75;;;-0.73;64.50
39357;BME280;25077;50.302;18.996;2022-12-18T11:22:36;100044.03;;;-0.89;64.07
39357;BME280;25077;50.302;18.996;2022-12-18T11:25:51;100048.19;;;-0.93;64.70
39357;BME280;25077;50.302;18.996;2022-12-18T11:29:08;100053.00;;;-0.78;65.15
39357;BME280;25077;50.302;18.996;2022-12-18T11:32:38;100058.31;;;-0.78;63.88
39357;BME280;25077;50.302;18.996;2022-12-18T11:35:47;100050.81;;;-0.65;63.87
39357;BME280;25077;50.302;18.996;2022-12-18T11:38:53;100063.53;;;0.01;64.54
39357;BME280;25077;50.302;18.996;2022-12-18T11:42:02;100063.69;;;0.77;61.69
39357;BME280;25077;50.302;18.996;2022-12-18T11:45:27;100076.44;;;1.51;62.17
39357;BME280;25077;50.302;18.996;2022-12-18T11:48:32;100069.88;;;1.68;61.67
39357;BME280;25077;50.302;18.996;2022-12-18T11:51:41;100071.16;;;1.61;60.89
39357;BME280;25077;50.302;18.996;2022-12-18T11:54:45;100073.56;;;1.30;61.15
39357;BME280;25077;50.302;18.996;2022-12-18T11:57:54;100068.91;;;1.15;61.13
39357;BME280;25077;50.302;18.996;2022-12-18T12:01:05;100072.63;;;1.14;60.88
39357;BME280;25077;50.302;18.996;2022-12-18T12:04:29;100075.81;;;0.89;59.21
39357;BME280;25077;50.302;18.996;2022-12-18T12:07:40;100076.09;;;0.66;60.21
39357;BME280;25077;50.302;18.996;2022-12-18T12:10:54;100074.97;;;0.62;61.33
39357;BME280;25077;50.302;18.996;2022-12-18T12:14:12;100085.97;;;0.87;60.35
39357;BME280;25077;50.302;18.996;2022-12-18T12:17:23;100079.69;;;0.99;61.09
39357;BME280;25077;50.302;18.996;2022-12-18T12:20:36;100084.00;;;1.05;61.30
39357;BME280;25077;50.302;18.996;2022-12-18T12:23:48;100080.03;;;1.34;62.50
39357;BME280;25077;50.302;18.996;2022-12-18T12:27:00;100086.75;;;1.74;63.34
39357;BME280;25077;50.302;18.996;2022-12-18T12:30:07;100092.84;;;2.01;61.61
39357;BME280;25077;50.302;18.996;2022-12-18T12:33:22;100082.13;;;2.49;61.76
39357;BME280;25077;50.302;18.996;2022-12-18T12:36:34;100088.47;;;2.95;61.38
39357;BME280;25077;50.302;18.996;2022-12-18T12:39:42;100087.19;;;3.33;62.08
39357;BME280;25077;50.302;18.996;2022-12-18T12:42:52;100092.84;;;3.62;59.96
39357;BME280;25077;50.302;18.996;2022-12-18T12:46:17;100093.63;;;4.09;61.27
39357;BME280;25077;50.302;18.996;2022-12-18T12:49:23;100087.28;;;4.70;61.43
39357;BME280;25077;50.302;18.996;2022-12-18T12:52:31;100086.66;;;5.37;60.74
39357;BME280;25077;50.302;18.996;2022-12-18T12:55:34;100085.19;;;5.84;59.85
39357;BME280;25077;50.302;18.996;2022-12-18T12:58:41;100093.66;;;6.31;59.21
39357;BME280;25077;50.302;18.996;2022-12-18T13:01:53;100092.84;;;6.54;57.93
39357;BME280;25077;50.302;18.996;2022-12-18T13:05:03;100097.44;;;6.77;58.37
39357;BME280;25077;50.302;18.996;2022-12-18T13:08:09;100094.19;;;6.99;57.99
39357;BME280;25077;50.302;18.996;2022-12-18T13:11:37;100089.31;;;7.20;56.59
39357;BME280;25077;50.302;18.996;2022-12-18T13:15:12;100096.91;;;7.18;55.93
39357;BME280;25077;50.302;18.996;2022-12-18T13:18:19;100105.19;;;7.03;55.75
39357;BME280;25077;50.302;18.996;2022-12-18T13:21:25;100103.28;;;7.03;56.20
39357;BME280;25077;50.302;18.996;2022-12-18T13:24:30;100101.03;;;6.92;55.44
39357;BME280;25077;50.302;18.996;2022-12-18T13:30:59;100112.56;;;6.73;53.99
39357;BME280;25077;50.302;18.996;2022-12-18T13:34:16;100115.97;;;6.55;52.62
39357;BME280;25077;50.302;18.996;2022-12-18T13:37:42;100112.59;;;6.20;51.97
39357;BME280;25077;50.302;18.996;2022-12-18T13:40:55;100111.22;;;5.94;52.58
39357;BME280;25077;50.302;18.996;2022-12-18T13:44:10;100114.75;;;5.55;52.25
39357;BME280;25077;50.302;18.996;2022-12-18T13:47:26;100116.03;;;5.24;51.91
39357;BME280;25077;50.302;18.996;2022-12-18T13:50:31;100127.50;;;4.90;52.98
39357;BME280;25077;50.302;18.996;2022-12-18T13:53:39;100121.44;;;4.54;52.61
39357;BME280;25077;50.302;18.996;2022-12-18T13:56:45;100115.34;;;4.12;53.09
39357;BME280;25077;50.302;18.996;2022-12-18T13:59:49;100108.94;;;3.68;52.66
39357;BME280;25077;50.302;18.996;2022-12-18T14:02:51;100109.44;;;3.24;52.27
39357;BME280;25077;50.302;18.996;2022-12-18T14:06:04;100120.97;;;2.57;51.85
39357;BME280;25077;50.302;18.996;2022-12-18T14:09:13;100111.19;;;1.93;52.95
39357;BME280;25077;50.302;18.996;2022-12-18T14:12:19;100115.25;;;1.31;52.83
39357;BME280;25077;50.302;18.996;2022-12-18T14:15:41;100115.78;;;0.84;53.16
39357;BME280;25077;50.302;18.996;2022-12-18T14:18:46;100115.53;;;0.42;53.62
39357;BME280;25077;50.302;18.996;2022-12-18T14:21:51;100113.19;;;0.07;54.41
39357;BME280;25077;50.302;18.996;2022-12-18T14:25:13;100122.16;;;-0.33;53.60
39357;BME280;25077;50.302;18.996;2022-12-18T14:28:16;100112.97;;;-0.71;54.50
39357;BME280;25077;50.302;18.996;2022-12-18T14:31:19;100111.19;;;-1.10;54.44
39357;BME280;25077;50.302;18.996;2022-12-18T14:34:26;100120.09;;;-1.57;54.61
39357;BME280;25077;50.302;18.996;2022-12-18T14:37:29;100123.34;;;-2.02;55.24
39357;BME280;25077;50.302;18.996;2022-12-18T14:40:31;100131.13;;;-2.42;55.79
39357;BME280;25077;50.302;18.996;2022-12-18T14:43:35;100132.13;;;-2.85;56.19
39357;BME280;25077;50.302;18.996;2022-12-18T14:46:39;100127.72;;;-3.21;56.76
39357;BME280;25077;50.302;18.996;2022-12-18T14:49:43;100142.97;;;-3.53;57.22
39357;BME280;25077;50.302;18.996;2022-12-18T14:52:47;100136.91;;;-3.78;57.65
39357;BME280;25077;50.302;18.996;2022-12-18T14:55:50;100142.91;;;-4.08;58.46
39357;BME280;25077;50.302;18.996;2022-12-18T14:58:54;100145.16;;;-4.37;58.46
39357;BME280;25077;50.302;18.996;2022-12-18T15:02:01;100149.00;;;-4.64;59.09
39357;BME280;25077;50.302;18.996;2022-12-18T15:05:14;100151.78;;;-4.91;59.58
39357;BME280;25077;50.302;18.996;2022-12-18T15:08:31;100160.63;;;-5.10;59.79
39357;BME280;25077;50.302;18.996;2022-12-18T15:11:45;100166.38;;;-5.26;60.17
39357;BME280;25077;50.302;18.996;2022-12-18T15:14:47;100161.31;;;-5.41;60.84
39357;BME280;25077;50.302;18.996;2022-12-18T15:17:56;100167.44;;;-5.54;60.85
39357;BME280;25077;50.302;18.996;2022-12-18T15:20:59;100166.66;;;-5.67;61.24
39357;BME280;25077;50.302;18.996;2022-12-18T15:24:17;100162.63;;;-5.83;61.56
39357;BME280;25077;50.302;18.996;2022-12-18T15:27:26;100176.63;;;-5.96;61.80
39357;BME280;25077;50.302;18.996;2022-12-18T15:30:29;100177.44;;;-6.09;62.11
39357;BME280;25077;50.302;18.996;2022-12-18T15:33:34;100173.41;;;-6.18;62.20
39357;BME280;25077;50.302;18.996;2022-12-18T15:36:36;100176.66;;;-6.29;62.97
39357;BME280;25077;50.302;18.996;2022-12-18T15:39:40;100185.97;;;-6.40;63.10
39357;BME280;25077;50.302;18.996;2022-12-18T15:42:42;100188.56;;;-6.46;63.34
39357;BME280;25077;50.302;18.996;2022-12-18T15:46:04;100180.66;;;-6.53;63.24
39357;BME280;25077;50.302;18.996;2022-12-18T15:49:07;100173.75;;;-6.61;63.64
39357;BME280;25077;50.302;18.996;2022-12-18T15:52:11;100181.22;;;-6.71;63.81
39357;BME280;25077;50.302;18.996;2022-12-18T15:55:18;100191.94;;;-6.79;64.04
39357;BME280;25077;50.302;18.996;2022-12-18T15:58:38;100184.22;;;-6.87;64.68
39357;BME280;25077;50.302;18.996;2022-12-18T16:01:41;100190.28;;;-6.93;64.65
39357;BME280;25077;50.302;18.996;2022-12-18T16:04:45;100195.53;;;-7.00;65.21
39357;BME280;25077;50.302;18.996;2022-12-18T16:07:47;100194.69;;;-7.07;65.38
39357;BME280;25077;50.302;18.996;2022-12-18T16:10:51;100191.41;;;-7.16;66.10